Palmeira, Brazil
Current Conditions -  °F | °C
As of 9:00 PM on Sunday 19 Oct 2014 (Local Time) from SBBI Reporting Station
Haze Haze  
Wind Chill: 61°   Ceiling: 9000
Heat Index: 61°   Visibility: 3mi
Dew Point: 61°   Wind: 5mph
Humidity: 100%   Direction: 40°NE
Pressure: 30.06"   Gusts: NA
Location:  25.43°S, 50.01°W
Report Text: SBBI 200000Z 04004KT 5000 BR SCT008 BKN090 16/16 Q1018
Loading
Personal Weather Stations






























Interactive Weather Map
Tropical Storm Tracking
New forecast layout! Learn more

10-Day Weather Forecast

Advertisements
Track Severe Weather on mobile